Sao Joao do Pau d'Alho, Brazil
Current Conditions -  °F | °C
As of 2:00 PM on Monday 26 Jan 2015 (Local Time) from SBDN Reporting Station
Broken Clouds Broken Clouds  
Wind Chill: 88°   Ceiling: 4000
Heat Index: 89°   Visibility: 6mi
Dew Point: 64°   Wind: 7mph
Humidity: 46%   Direction: 310°NW
Pressure: 29.91"   Gusts: NA
Location:  21.27°S, 51.67°W
Report Text: SBDN 261600Z 31006KT 9999 BKN040 31/18 Q1013
Loading
Personal Weather Stations






























Interactive Weather Map New forecast layout! Learn more

10-Day Weather Forecast

Advertisements
Track Severe Weather on mobile